sensor_id;sensor_type;location;lat;lon;timestamp;pressure;altitude;pressure_sealevel;temperature;humidity
11710;BME280;5911;51.036;6.972;2022-07-25T00:01:16;100332.34;;;24.45;74.48
11710;BME280;5911;51.036;6.972;2022-07-25T00:03:46;100348.50;;;24.51;73.93
11710;BME280;5911;51.036;6.972;2022-07-25T00:06:14;100350.81;;;24.48;74.34
11710;BME280;5911;51.036;6.972;2022-07-25T00:08:43;100352.91;;;24.46;75.05
11710;BME280;5911;51.036;6.972;2022-07-25T00:11:11;100341.75;;;24.42;75.64
11710;BME280;5911;51.036;6.972;2022-07-25T00:13:39;100335.75;;;24.40;76.12
11710;BME280;5911;51.036;6.972;2022-07-25T00:16:07;100332.44;;;24.38;76.24
11710;BME280;5911;51.036;6.972;2022-07-25T00:18:36;100328.31;;;24.36;76.77
11710;BME280;5911;51.036;6.972;2022-07-25T00:21:04;100321.94;;;24.30;76.19
11710;BME280;5911;51.036;6.972;2022-07-25T00:23:32;100311.59;;;24.27;77.26
11710;BME280;5911;51.036;6.972;2022-07-25T00:26:00;100304.78;;;24.25;76.69
11710;BME280;5911;51.036;6.972;2022-07-25T00:28:28;100296.91;;;24.23;76.13
11710;BME280;5911;51.036;6.972;2022-07-25T00:30:56;100299.63;;;24.16;74.71
11710;BME280;5911;51.036;6.972;2022-07-25T00:33:24;100307.88;;;24.28;75.03
11710;BME280;5911;51.036;6.972;2022-07-25T00:35:53;100302.47;;;24.28;74.36
11710;BME280;5911;51.036;6.972;2022-07-25T00:38:21;100293.56;;;24.28;74.99
11710;BME280;5911;51.036;6.972;2022-07-25T00:40:49;100294.59;;;24.27;73.53
11710;BME280;5911;51.036;6.972;2022-07-25T00:43:20;100294.81;;;24.25;74.52
11710;BME280;5911;51.036;6.972;2022-07-25T00:45:48;100287.78;;;24.24;74.20
11710;BME280;5911;51.036;6.972;2022-07-25T00:48:17;100279.69;;;24.24;73.75
11710;BME280;5911;51.036;6.972;2022-07-25T00:50:45;100279.69;;;24.24;74.75
11710;BME280;5911;51.036;6.972;2022-07-25T00:53:14;100274.72;;;24.21;74.86
11710;BME280;5911;51.036;6.972;2022-07-25T00:55:42;100277.41;;;24.21;73.81
11710;BME280;5911;51.036;6.972;2022-07-25T00:58:10;100283.84;;;24.20;73.22
11710;BME280;5911;51.036;6.972;2022-07-25T01:00:38;100285.94;;;24.18;73.35
11710;BME280;5911;51.036;6.972;2022-07-25T01:03:06;100279.72;;;24.17;72.63
11710;BME280;5911;51.036;6.972;2022-07-25T01:05:34;100283.47;;;24.16;72.14
11710;BME280;5911;51.036;6.972;2022-07-25T01:08:03;100279.72;;;24.17;71.90
11710;BME280;5911;51.036;6.972;2022-07-25T01:10:32;100282.63;;;24.16;73.49
11710;BME280;5911;51.036;6.972;2022-07-25T01:13:01;100282.50;;;24.11;73.21
11710;BME280;5911;51.036;6.972;2022-07-25T01:15:29;100276.50;;;24.09;72.66
11710;BME280;5911;51.036;6.972;2022-07-25T01:17:56;100274.84;;;24.08;73.69
11710;BME280;5911;51.036;6.972;2022-07-25T01:20:29;100276.50;;;24.09;73.28
11710;BME280;5911;51.036;6.972;2022-07-25T01:22:57;100260.81;;;23.99;74.61
11710;BME280;5911;51.036;6.972;2022-07-25T01:25:27;100275.88;;;24.07;72.39
11710;BME280;5911;51.036;6.972;2022-07-25T01:27:55;100266.59;;;24.03;72.70
11710;BME280;5911;51.036;6.972;2022-07-25T01:30:24;100275.06;;;24.06;72.12
11710;BME280;5911;51.036;6.972;2022-07-25T01:32:52;100274.47;;;24.04;74.10
11710;BME280;5911;51.036;6.972;2022-07-25T01:35:19;100271.59;;;23.99;73.55
11710;BME280;5911;51.036;6.972;2022-07-25T01:37:49;100276.16;;;23.99;72.92
11710;BME280;5911;51.036;6.972;2022-07-25T01:40:17;100222.94;;;23.69;73.23
11710;BME280;5911;51.036;6.972;2022-07-25T01:42:45;100268.31;;;23.97;73.60
11710;BME280;5911;51.036;6.972;2022-07-25T01:45:13;100267.50;;;23.97;73.09
11710;BME280;5911;51.036;6.972;2022-07-25T01:47:40;100267.94;;;23.94;73.38
11710;BME280;5911;51.036;6.972;2022-07-25T01:50:09;100270.63;;;23.94;73.62
11710;BME280;5911;51.036;6.972;2022-07-25T01:52:37;100262.53;;;23.94;72.95
11710;BME280;5911;51.036;6.972;2022-07-25T01:55:08;100260.44;;;23.96;72.85
11710;BME280;5911;51.036;6.972;2022-07-25T01:57:36;100249.50;;;23.91;72.60
11710;BME280;5911;51.036;6.972;2022-07-25T02:00:08;100243.06;;;23.92;73.52
11710;BME280;5911;51.036;6.972;2022-07-25T02:02:40;100246.59;;;23.92;73.09
11710;BME280;5911;51.036;6.972;2022-07-25T02:05:09;100248.88;;;23.89;74.56
11710;BME280;5911;51.036;6.972;2022-07-25T02:07:37;100232.03;;;23.75;74.65
11710;BME280;5911;51.036;6.972;2022-07-25T02:10:07;100249.31;;;23.85;73.13
11710;BME280;5911;51.036;6.972;2022-07-25T02:12:35;100240.06;;;23.81;75.25
11710;BME280;5911;51.036;6.972;2022-07-25T02:15:04;100239.44;;;23.79;75.29
11710;BME280;5911;51.036;6.972;2022-07-25T02:17:32;100240.50;;;23.78;75.84
11710;BME280;5911;51.036;6.972;2022-07-25T02:20:00;100230.75;;;23.77;75.63
11710;BME280;5911;51.036;6.972;2022-07-25T02:22:28;100234.50;;;23.76;74.66
11710;BME280;5911;51.036;6.972;2022-07-25T02:24:55;100232.84;;;23.75;75.09
11710;BME280;5911;51.036;6.972;2022-07-25T02:27:25;100233.88;;;23.74;74.74
11710;BME280;5911;51.036;6.972;2022-07-25T02:29:52;100226.03;;;23.73;76.71
11710;BME280;5911;51.036;6.972;2022-07-25T02:32:20;100217.94;;;23.73;78.12
11710;BME280;5911;51.036;6.972;2022-07-25T02:34:48;100222.94;;;23.69;76.21
11710;BME280;5911;51.036;6.972;2022-07-25T02:37:16;100224.59;;;23.70;74.75
11710;BME280;5911;51.036;6.972;2022-07-25T02:39:44;100217.13;;;23.72;76.05
11710;BME280;5911;51.036;6.972;2022-07-25T02:42:11;100216.28;;;23.72;74.64
11710;BME280;5911;51.036;6.972;2022-07-25T02:44:41;100216.28;;;23.72;73.78
11710;BME280;5911;51.036;6.972;2022-07-25T02:47:08;100215.47;;;23.71;74.68
11710;BME280;5911;51.036;6.972;2022-07-25T02:49:36;100213.81;;;23.70;74.76
11710;BME280;5911;51.036;6.972;2022-07-25T02:52:04;100204.09;;;23.69;77.04
11710;BME280;5911;51.036;6.972;2022-07-25T02:54:32;100199.38;;;23.65;75.79
11710;BME280;5911;51.036;6.972;2022-07-25T02:57:00;100203.50;;;23.67;75.79
11710;BME280;5911;51.036;6.972;2022-07-25T02:59:28;100198.56;;;23.64;76.20
11710;BME280;5911;51.036;6.972;2022-07-25T03:01:59;100204.38;;;23.61;77.33
11710;BME280;5911;51.036;6.972;2022-07-25T03:04:27;100208.13;;;23.60;77.57
11710;BME280;5911;51.036;6.972;2022-07-25T03:06:56;100195.91;;;23.58;76.87
11710;BME280;5911;51.036;6.972;2022-07-25T03:09:24;100194.88;;;23.59;78.27
11710;BME280;5911;51.036;6.972;2022-07-25T03:11:52;100194.03;;;23.58;77.44
11710;BME280;5911;51.036;6.972;2022-07-25T03:14:20;100190.31;;;23.59;78.67
11710;BME280;5911;51.036;6.972;2022-07-25T03:16:48;100192.38;;;23.57;75.81
11710;BME280;5911;51.036;6.972;2022-07-25T03:19:17;100188.88;;;23.57;77.45
11710;BME280;5911;51.036;6.972;2022-07-25T03:21:45;100189.69;;;23.57;75.66
11710;BME280;5911;51.036;6.972;2022-07-25T03:24:12;100183.50;;;23.57;74.83
11710;BME280;5911;51.036;6.972;2022-07-25T03:26:40;100179.97;;;23.56;75.40
11710;BME280;5911;51.036;6.972;2022-07-25T03:29:08;100175.00;;;23.53;76.74
11710;BME280;5911;51.036;6.972;2022-07-25T03:31:36;100173.41;;;23.52;75.87
11710;BME280;5911;51.036;6.972;2022-07-25T03:34:04;100169.88;;;23.52;75.45
11710;BME280;5911;51.036;6.972;2022-07-25T03:36:34;100170.06;;;23.50;77.26
11710;BME280;5911;51.036;6.972;2022-07-25T03:39:02;100168.63;;;23.47;78.80
11710;BME280;5911;51.036;6.972;2022-07-25T03:41:31;100166.16;;;23.46;77.52
11710;BME280;5911;51.036;6.972;2022-07-25T03:43:59;100160.59;;;23.41;77.04
11710;BME280;5911;51.036;6.972;2022-07-25T03:46:26;100156.53;;;23.32;78.38
11710;BME280;5911;51.036;6.972;2022-07-25T03:48:54;100157.75;;;23.36;78.17
11710;BME280;5911;51.036;6.972;2022-07-25T03:51:22;100150.34;;;23.31;78.04
11710;BME280;5911;51.036;6.972;2022-07-25T03:53:52;100148.25;;;23.33;78.40
11710;BME280;5911;51.036;6.972;2022-07-25T03:56:30;100145.78;;;23.32;78.19
11710;BME280;5911;51.036;6.972;2022-07-25T03:58:58;100144.34;;;23.29;77.50
11710;BME280;5911;51.036;6.972;2022-07-25T04:01:26;100142.09;;;23.26;78.17
11710;BME280;5911;51.036;6.972;2022-07-25T04:03:55;100138.56;;;23.26;78.15
11710;BME280;5911;51.036;6.972;2022-07-25T04:06:23;100143.34;;;23.24;78.53
11710;BME280;5911;51.036;6.972;2022-07-25T04:08:53;100137.97;;;23.24;77.66
11710;BME280;5911;51.036;6.972;2022-07-25T04:11:21;100132.56;;;23.24;78.71
11710;BME280;5911;51.036;6.972;2022-07-25T04:13:50;100130.94;;;23.23;77.53
11710;BME280;5911;51.036;6.972;2022-07-25T04:16:18;100135.25;;;23.24;78.25
11710;BME280;5911;51.036;6.972;2022-07-25T04:18:48;100134.69;;;23.22;79.21
11710;BME280;5911;51.036;6.972;2022-07-25T04:21:17;100133.03;;;23.21;78.87
11710;BME280;5911;51.036;6.972;2022-07-25T04:23:45;100129.31;;;23.22;78.87
11710;BME280;5911;51.036;6.972;2022-07-25T04:26:14;100134.22;;;23.25;77.58
11710;BME280;5911;51.036;6.972;2022-07-25T04:28:42;100130.50;;;23.26;78.39
11710;BME280;5911;51.036;6.972;2022-07-25T04:31:10;100127.38;;;23.29;77.70
11710;BME280;5911;51.036;6.972;2022-07-25T04:33:38;100120.94;;;23.30;77.46
11710;BME280;5911;51.036;6.972;2022-07-25T04:36:07;100116.16;;;23.32;77.79
11710;BME280;5911;51.036;6.972;2022-07-25T04:38:35;100118.84;;;23.32;77.61
11710;BME280;5911;51.036;6.972;2022-07-25T04:41:03;100117.22;;;23.31;76.96
11710;BME280;5911;51.036;6.972;2022-07-25T04:43:33;100117.94;;;23.38;76.24
11710;BME280;5911;51.036;6.972;2022-07-25T04:46:01;100120.22;;;23.41;77.13
11710;BME280;5911;51.036;6.972;2022-07-25T04:48:28;100115.44;;;23.43;75.98
11710;BME280;5911;51.036;6.972;2022-07-25T04:50:57;100101.59;;;23.39;76.27
11710;BME280;5911;51.036;6.972;2022-07-25T04:53:24;100113.34;;;23.52;75.95
11710;BME280;5911;51.036;6.972;2022-07-25T04:55:52;100107.69;;;23.53;78.07
11710;BME280;5911;51.036;6.972;2022-07-25T04:58:22;100096.69;;;23.55;78.20
11710;BME280;5911;51.036;6.972;2022-07-25T05:00:51;100103.31;;;23.59;77.17
11710;BME280;5911;51.036;6.972;2022-07-25T05:03:19;100101.22;;;23.61;77.53
11710;BME280;5911;51.036;6.972;2022-07-25T05:05:47;100100.81;;;23.57;77.55
11710;BME280;5911;51.036;6.972;2022-07-25T05:08:15;100096.66;;;23.61;79.52
11710;BME280;5911;51.036;6.972;2022-07-25T05:10:43;100103.69;;;23.62;77.56
11710;BME280;5911;51.036;6.972;2022-07-25T05:13:11;100095.16;;;23.65;78.34
11710;BME280;5911;51.036;6.972;2022-07-25T05:15:41;100094.56;;;23.63;78.06
11710;BME280;5911;51.036;6.972;2022-07-25T05:18:11;100099.50;;;23.66;78.77
11710;BME280;5911;51.036;6.972;2022-07-25T05:20:41;100102.56;;;23.70;78.80
11710;BME280;5911;51.036;6.972;2022-07-25T05:23:08;100097.78;;;23.72;79.16
11710;BME280;5911;51.036;6.972;2022-07-25T05:25:36;100087.59;;;23.74;78.86
11710;BME280;5911;51.036;6.972;2022-07-25T05:28:04;100090.69;;;23.77;78.06
11710;BME280;5911;51.036;6.972;2022-07-25T05:30:32;100089.41;;;23.80;76.75
11710;BME280;5911;51.036;6.972;2022-07-25T05:33:05;100078.03;;;23.78;78.49
11710;BME280;5911;51.036;6.972;2022-07-25T05:35:34;100086.94;;;23.78;78.04
11710;BME280;5911;51.036;6.972;2022-07-25T05:38:03;100076.53;;;23.82;77.01
11710;BME280;5911;51.036;6.972;2022-07-25T05:40:32;100080.63;;;23.84;75.83
11710;BME280;5911;51.036;6.972;2022-07-25T05:43:00;100084.97;;;23.85;75.69
11710;BME280;5911;51.036;6.972;2022-07-25T05:45:29;100075.25;;;23.84;75.53
11710;BME280;5911;51.036;6.972;2022-07-25T05:47:57;100079.38;;;23.87;75.10
11710;BME280;5911;51.036;6.972;2022-07-25T05:50:25;100071.88;;;23.89;75.70
11710;BME280;5911;51.036;6.972;2022-07-25T05:52:54;100072.50;;;23.91;75.66
11710;BME280;5911;51.036;6.972;2022-07-25T05:55:22;100059.56;;;23.81;78.63
11710;BME280;5911;51.036;6.972;2022-07-25T05:57:50;100065.66;;;23.89;77.58
11710;BME280;5911;51.036;6.972;2022-07-25T06:00:18;100069.34;;;23.94;77.27
11710;BME280;5911;51.036;6.972;2022-07-25T06:02:46;100071.81;;;23.96;75.38
11710;BME280;5911;51.036;6.972;2022-07-25T06:05:14;100069.25;;;24.01;74.68
11710;BME280;5911;51.036;6.972;2022-07-25T06:07:42;100070.91;;;24.02;74.78
11710;BME280;5911;51.036;6.972;2022-07-25T06:10:11;100073.16;;;24.05;75.69
11710;BME280;5911;51.036;6.972;2022-07-25T06:12:39;100067.53;;;24.06;75.41
11710;BME280;5911;51.036;6.972;2022-07-25T06:15:09;100062.50;;;24.10;72.76
11710;BME280;5911;51.036;6.972;2022-07-25T06:17:47;100062.06;;;24.13;72.69
11710;BME280;5911;51.036;6.972;2022-07-25T06:20:15;100061.59;;;24.16;73.96
11710;BME280;5911;51.036;6.972;2022-07-25T06:22:44;100058.06;;;24.15;72.00
11710;BME280;5911;51.036;6.972;2022-07-25T06:25:13;100056.78;;;24.18;74.03
11710;BME280;5911;51.036;6.972;2022-07-25T06:27:41;100059.03;;;24.21;71.55
11710;BME280;5911;51.036;6.972;2022-07-25T06:30:10;100054.28;;;24.23;73.12
11710;BME280;5911;51.036;6.972;2022-07-25T06:32:46;100059.00;;;24.28;73.69
11710;BME280;5911;51.036;6.972;2022-07-25T06:35:14;100062.03;;;24.31;74.41
11710;BME280;5911;51.036;6.972;2022-07-25T06:37:42;100057.84;;;24.35;76.27
11710;BME280;5911;51.036;6.972;2022-07-25T06:40:11;100059.03;;;24.39;74.40
11710;BME280;5911;51.036;6.972;2022-07-25T06:42:43;100064.53;;;24.44;72.26
11710;BME280;5911;51.036;6.972;2022-07-25T06:45:13;100059.53;;;24.48;72.83
11710;BME280;5911;51.036;6.972;2022-07-25T06:47:42;100057.19;;;24.51;74.62
11710;BME280;5911;51.036;6.972;2022-07-25T06:50:12;100055.25;;;24.59;73.32
11710;BME280;5911;51.036;6.972;2022-07-25T06:52:42;100060.97;;;24.62;72.20
11710;BME280;5911;51.036;6.972;2022-07-25T06:55:12;100059.84;;;24.70;70.85
11710;BME280;5911;51.036;6.972;2022-07-25T06:57:43;100064.53;;;24.74;69.90
11710;BME280;5911;51.036;6.972;2022-07-25T07:00:13;100070.28;;;24.78;70.65
11710;BME280;5911;51.036;6.972;2022-07-25T07:02:48;100066.06;;;24.82;67.88
11710;BME280;5911;51.036;6.972;2022-07-25T07:05:18;100053.53;;;24.87;70.19
11710;BME280;5911;51.036;6.972;2022-07-25T07:07:46;100054.34;;;24.88;71.42
11710;BME280;5911;51.036;6.972;2022-07-25T07:10:14;100047.41;;;24.92;70.88
11710;BME280;5911;51.036;6.972;2022-07-25T07:12:43;100047.00;;;24.95;70.38
11710;BME280;5911;51.036;6.972;2022-07-25T07:15:12;100057.31;;;24.98;71.45
11710;BME280;5911;51.036;6.972;2022-07-25T07:17:40;100045.94;;;24.96;70.92
11710;BME280;5911;51.036;6.972;2022-07-25T07:20:10;100042.56;;;25.01;70.42
11710;BME280;5911;51.036;6.972;2022-07-25T07:22:44;100033.63;;;25.00;71.54
11710;BME280;5911;51.036;6.972;2022-07-25T07:25:16;100037.03;;;25.07;71.06
11710;BME280;5911;51.036;6.972;2022-07-25T07:27:47;100032.34;;;25.14;69.76
11710;BME280;5911;51.036;6.972;2022-07-25T07:30:15;100032.69;;;25.18;70.54
11710;BME280;5911;51.036;6.972;2022-07-25T07:32:49;100039.03;;;25.23;69.49
11710;BME280;5911;51.036;6.972;2022-07-25T07:35:20;100031.28;;;25.27;71.53
11710;BME280;5911;51.036;6.972;2022-07-25T07:37:48;100041.47;;;25.37;69.15
11710;BME280;5911;51.036;6.972;2022-07-25T07:40:19;100032.69;;;25.41;69.12
11710;BME280;5911;51.036;6.972;2022-07-25T07:42:52;100033.84;;;25.45;67.38
11710;BME280;5911;51.036;6.972;2022-07-25T07:45:21;100023.41;;;25.49;70.26
11710;BME280;5911;51.036;6.972;2022-07-25T07:47:51;100021.16;;;25.57;69.47
11710;BME280;5911;51.036;6.972;2022-07-25T07:50:26;100028.09;;;25.65;68.68
11710;BME280;5911;51.036;6.972;2022-07-25T07:53:00;100019.63;;;25.73;66.98
11710;BME280;5911;51.036;6.972;2022-07-25T07:55:29;100020.31;;;25.80;65.62
11710;BME280;5911;51.036;6.972;2022-07-25T07:58:14;100028.16;;;25.82;67.50
11710;BME280;5911;51.036;6.972;2022-07-25T08:00:43;100021.47;;;25.84;65.99
11710;BME280;5911;51.036;6.972;2022-07-25T08:03:11;100015.00;;;25.85;65.38
11710;BME280;5911;51.036;6.972;2022-07-25T08:05:41;100022.16;;;25.91;68.41
11710;BME280;5911;51.036;6.972;2022-07-25T08:08:12;100023.63;;;25.99;66.21
11710;BME280;5911;51.036;6.972;2022-07-25T08:10:42;100028.91;;;26.06;66.83
11710;BME280;5911;51.036;6.972;2022-07-25T08:13:17;100026.44;;;26.04;68.52
11710;BME280;5911;51.036;6.972;2022-07-25T08:15:48;100028.78;;;26.12;67.54
11710;BME280;5911;51.036;6.972;2022-07-25T08:18:17;100021.56;;;26.18;66.88
11710;BME280;5911;51.036;6.972;2022-07-25T08:20:45;100035.28;;;26.28;65.17
11710;BME280;5911;51.036;6.972;2022-07-25T08:23:14;100018.38;;;26.21;67.51
11710;BME280;5911;51.036;6.972;2022-07-25T08:25:43;100024.38;;;26.23;66.96
11710;BME280;5911;51.036;6.972;2022-07-25T08:28:13;100034.03;;;26.19;67.60
11710;BME280;5911;51.036;6.972;2022-07-25T08:30:41;100030.75;;;26.17;67.84
11710;BME280;5911;51.036;6.972;2022-07-25T08:33:12;100031.44;;;26.24;68.24
11710;BME280;5911;51.036;6.972;2022-07-25T08:35:45;100034.97;;;26.24;67.97
11710;BME280;5911;51.036;6.972;2022-07-25T08:38:17;100033.06;;;26.25;66.71
11710;BME280;5911;51.036;6.972;2022-07-25T08:40:45;100051.06;;;26.31;64.01
11710;BME280;5911;51.036;6.972;2022-07-25T08:43:15;100055.63;;;26.42;61.77
11710;BME280;5911;51.036;6.972;2022-07-25T08:45:45;100046.41;;;26.43;60.63
11710;BME280;5911;51.036;6.972;2022-07-25T08:48:16;100040.28;;;26.48;59.31
11710;BME280;5911;51.036;6.972;2022-07-25T08:50:45;100055.31;;;26.55;58.62
11710;BME280;5911;51.036;6.972;2022-07-25T08:53:15;100048.59;;;26.58;58.12
11710;BME280;5911;51.036;6.972;2022-07-25T08:56:02;100042.91;;;26.59;58.18
11710;BME280;5911;51.036;6.972;2022-07-25T08:58:39;100066.28;;;26.66;58.67
11710;BME280;5911;51.036;6.972;2022-07-25T09:01:12;100062.06;;;26.70;58.86
11710;BME280;5911;51.036;6.972;2022-07-25T09:03:41;100059.09;;;26.71;59.27
11710;BME280;5911;51.036;6.972;2022-07-25T09:06:14;100057.47;;;26.70;59.63
11710;BME280;5911;51.036;6.972;2022-07-25T09:08:50;100058.19;;;26.66;58.50
11710;BME280;5911;51.036;6.972;2022-07-25T09:11:28;100060.53;;;26.62;60.17
11710;BME280;5911;51.036;6.972;2022-07-25T09:13:59;100054.78;;;26.58;59.81
11710;BME280;5911;51.036;6.972;2022-07-25T09:16:28;100058.19;;;26.66;59.69
11710;BME280;5911;51.036;6.972;2022-07-25T09:19:11;100049.72;;;26.62;59.75
11710;BME280;5911;51.036;6.972;2022-07-25T09:21:41;100054.00;;;26.75;59.80
11710;BME280;5911;51.036;6.972;2022-07-25T09:24:13;100055.06;;;26.74;59.43
11710;BME280;5911;51.036;6.972;2022-07-25T09:26:43;100056.78;;;26.80;60.06
11710;BME280;5911;51.036;6.972;2022-07-25T09:29:17;100053.84;;;26.81;60.15
11710;BME280;5911;51.036;6.972;2022-07-25T09:31:45;100057.97;;;26.84;59.80
11710;BME280;5911;51.036;6.972;2022-07-25T09:34:16;100069.44;;;26.91;57.45
11710;BME280;5911;51.036;6.972;2022-07-25T09:36:55;100079.56;;;26.95;57.05
11710;BME280;5911;51.036;6.972;2022-07-25T09:39:35;100083.66;;;26.98;55.76
11710;BME280;5911;51.036;6.972;2022-07-25T09:42:22;100078.50;;;26.96;56.64
11710;BME280;5911;51.036;6.972;2022-07-25T09:45:01;100087.31;;;26.92;56.25
11710;BME280;5911;51.036;6.972;2022-07-25T09:47:29;100092.84;;;26.97;56.21
11710;BME280;5911;51.036;6.972;2022-07-25T09:49:58;100103.09;;;26.95;56.25
11710;BME280;5911;51.036;6.972;2022-07-25T09:52:26;100105.69;;;26.90;56.58
11710;BME280;5911;51.036;6.972;2022-07-25T09:54:54;100112.91;;;26.84;56.87
11710;BME280;5911;51.036;6.972;2022-07-25T09:57:22;100109.78;;;26.76;56.55
11710;BME280;5911;51.036;6.972;2022-07-25T09:59:51;100113.47;;;26.70;57.00
11710;BME280;5911;51.036;6.972;2022-07-25T10:02:32;100122.44;;;26.58;57.58
11710;BME280;5911;51.036;6.972;2022-07-25T10:05:12;100124.72;;;26.50;58.44
11710;BME280;5911;51.036;6.972;2022-07-25T10:07:44;100120.53;;;26.42;58.50
11710;BME280;5911;51.036;6.972;2022-07-25T10:10:26;100126.06;;;26.36;58.90
11710;BME280;5911;51.036;6.972;2022-07-25T10:13:00;100142.31;;;26.36;59.17
11710;BME280;5911;51.036;6.972;2022-07-25T10:15:44;100142.91;;;26.26;59.86
11710;BME280;5911;51.036;6.972;2022-07-25T10:18:15;100150.44;;;26.24;60.40
11710;BME280;5911;51.036;6.972;2022-07-25T10:20:44;100145.28;;;26.11;62.25
11710;BME280;5911;51.036;6.972;2022-07-25T10:23:17;100141.88;;;26.04;64.00
11710;BME280;5911;51.036;6.972;2022-07-25T10:25:45;100124.88;;;25.91;64.13
11710;BME280;5911;51.036;6.972;2022-07-25T10:28:17;100123.09;;;25.85;64.99
11710;BME280;5911;51.036;6.972;2022-07-25T10:30:46;100132.41;;;25.78;63.03
11710;BME280;5911;51.036;6.972;2022-07-25T10:33:25;100108.19;;;25.71;63.52
11710;BME280;5911;51.036;6.972;2022-07-25T10:35:53;100096.56;;;25.71;63.62
11710;BME280;5911;51.036;6.972;2022-07-25T10:38:32;100090.34;;;25.70;64.85
11710;BME280;5911;51.036;6.972;2022-07-25T10:41:00;100099.03;;;25.72;69.44
11710;BME280;5911;51.036;6.972;2022-07-25T10:43:35;100103.97;;;25.75;77.30
11710;BME280;5911;51.036;6.972;2022-07-25T10:46:10;100099.25;;;25.82;76.88
11710;BME280;5911;51.036;6.972;2022-07-25T10:48:40;100102.53;;;25.96;75.13
11710;BME280;5911;51.036;6.972;2022-07-25T10:51:11;100106.56;;;26.22;71.96
11710;BME280;5911;51.036;6.972;2022-07-25T10:53:43;100105.38;;;26.41;67.83
11710;BME280;5911;51.036;6.972;2022-07-25T10:56:13;100111.63;;;26.87;66.35
11710;BME280;5911;51.036;6.972;2022-07-25T11:01:26;100124.81;;;26.83;62.22
11710;BME280;5911;51.036;6.972;2022-07-25T11:03:57;100117.31;;;26.74;59.97
11710;BME280;5911;51.036;6.972;2022-07-25T11:06:32;100127.88;;;27.20;59.25
11710;BME280;5911;51.036;6.972;2022-07-25T11:09:00;100136.25;;;27.69;58.95
11710;BME280;5911;51.036;6.972;2022-07-25T11:11:37;100126.66;;;27.78;57.32
11710;BME280;5911;51.036;6.972;2022-07-25T11:14:13;100116.22;;;27.70;57.37
11710;BME280;5911;51.036;6.972;2022-07-25T11:16:44;100109.84;;;27.43;57.43
11710;BME280;5911;51.036;6.972;2022-07-25T11:19:18;100121.50;;;27.26;58.07
11710;BME280;5911;51.036;6.972;2022-07-25T11:21:47;100118.44;;;27.06;57.82
11710;BME280;5911;51.036;6.972;2022-07-25T11:24:15;100130.69;;;27.25;57.30
11710;BME280;5911;51.036;6.972;2022-07-25T11:26:45;100142.16;;;27.83;55.82
11710;BME280;5911;51.036;6.972;2022-07-25T11:29:20;100138.00;;;27.97;55.86
11710;BME280;5911;51.036;6.972;2022-07-25T11:32:01;100124.59;;;27.52;56.15
11710;BME280;5911;51.036;6.972;2022-07-25T11:34:32;100132.47;;;27.70;55.79
11710;BME280;5911;51.036;6.972;2022-07-25T11:37:03;100138.56;;;27.44;55.63
11710;BME280;5911;51.036;6.972;2022-07-25T11:39:35;100123.06;;;27.22;54.63
11710;BME280;5911;51.036;6.972;2022-07-25T11:42:04;100133.88;;;27.22;55.39
11710;BME280;5911;51.036;6.972;2022-07-25T11:44:35;100134.31;;;27.48;53.65
11710;BME280;5911;51.036;6.972;2022-07-25T11:47:06;100131.00;;;27.79;52.11
11710;BME280;5911;51.036;6.972;2022-07-25T11:49:44;100124.94;;;27.55;52.36
11710;BME280;5911;51.036;6.972;2022-07-25T11:52:20;100129.38;;;27.45;52.53
11710;BME280;5911;51.036;6.972;2022-07-25T11:54:50;100133.38;;;27.76;54.04
11710;BME280;5911;51.036;6.972;2022-07-25T11:57:23;100130.00;;;27.85;53.99
11710;BME280;5911;51.036;6.972;2022-07-25T11:59:51;100130.19;;;28.00;52.90
11710;BME280;5911;51.036;6.972;2022-07-25T12:02:26;100136.72;;;27.83;52.14
11710;BME280;5911;51.036;6.972;2022-07-25T12:04:55;100128.34;;;27.84;51.09
11710;BME280;5911;51.036;6.972;2022-07-25T12:07:38;100149.28;;;28.27;50.28
11710;BME280;5911;51.036;6.972;2022-07-25T12:10:07;100156.88;;;28.09;50.97
11710;BME280;5911;51.036;6.972;2022-07-25T12:12:47;100171.31;;;27.92;50.80
11710;BME280;5911;51.036;6.972;2022-07-25T12:15:18;100165.69;;;27.99;49.90
11710;BME280;5911;51.036;6.972;2022-07-25T12:17:48;100160.22;;;27.94;49.70
11710;BME280;5911;51.036;6.972;2022-07-25T12:20:17;100151.75;;;28.12;49.72
11710;BME280;5911;51.036;6.972;2022-07-25T12:22:46;100158.59;;;27.93;50.31
11710;BME280;5911;51.036;6.972;2022-07-25T12:25:14;100165.94;;;27.97;50.37
11710;BME280;5911;51.036;6.972;2022-07-25T12:27:42;100170.38;;;28.04;50.63
11710;BME280;5911;51.036;6.972;2022-07-25T12:30:11;100167.91;;;28.19;50.40
11710;BME280;5911;51.036;6.972;2022-07-25T12:32:40;100151.31;;;27.98;50.42
11710;BME280;5911;51.036;6.972;2022-07-25T12:35:12;100155.94;;;27.81;51.74
11710;BME280;5911;51.036;6.972;2022-07-25T12:37:40;100157.53;;;27.77;52.20
11710;BME280;5911;51.036;6.972;2022-07-25T12:40:10;100145.63;;;27.78;52.37
11710;BME280;5911;51.036;6.972;2022-07-25T12:42:39;100145.94;;;27.82;52.56
11710;BME280;5911;51.036;6.972;2022-07-25T12:45:07;100142.56;;;27.91;52.68
11710;BME280;5911;51.036;6.972;2022-07-25T12:47:35;100151.72;;;28.29;53.24
11710;BME280;5911;51.036;6.972;2022-07-25T12:50:04;100154.69;;;28.98;51.50
11710;BME280;5911;51.036;6.972;2022-07-25T12:52:34;100159.91;;;29.36;51.61
11710;BME280;5911;51.036;6.972;2022-07-25T12:55:04;100155.31;;;29.79;50.99
11710;BME280;5911;51.036;6.972;2022-07-25T12:57:34;100159.00;;;29.58;50.86
11710;BME280;5911;51.036;6.972;2022-07-25T13:00:03;100154.69;;;29.62;50.23
11710;BME280;5911;51.036;6.972;2022-07-25T13:02:31;100158.91;;;29.43;49.78
11710;BME280;5911;51.036;6.972;2022-07-25T13:04:59;100159.69;;;29.11;51.12
11710;BME280;5911;51.036;6.972;2022-07-25T13:07:27;100147.94;;;28.79;51.60
11710;BME280;5911;51.036;6.972;2022-07-25T13:09:56;100163.56;;;28.66;51.45
11710;BME280;5911;51.036;6.972;2022-07-25T13:12:24;100156.78;;;28.42;51.98
11710;BME280;5911;51.036;6.972;2022-07-25T13:14:52;100156.28;;;28.23;53.79
11710;BME280;5911;51.036;6.972;2022-07-25T13:17:20;100154.47;;;28.12;53.30